createdAt,value
2018-07-14T00:02:27.670Z,5.10
2018-07-14T00:04:55.832Z,5.72
2018-07-14T00:07:23.985Z,4.83
2018-07-14T00:09:52.146Z,5.55
2018-07-14T00:12:20.351Z,5.78
2018-07-14T00:14:48.480Z,5.60
2018-07-14T00:17:16.612Z,4.58
2018-07-14T00:19:44.718Z,6.10
2018-07-14T00:22:12.792Z,5.22
2018-07-14T00:24:40.887Z,5.33
2018-07-14T00:27:09.025Z,5.20
2018-07-14T00:29:37.160Z,4.93
2018-07-14T00:32:05.286Z,5.57
2018-07-14T00:34:33.398Z,5.50
2018-07-14T00:37:01.500Z,4.90
2018-07-14T00:39:29.663Z,5.83
2018-07-14T00:41:57.761Z,5.30
2018-07-14T00:44:25.872Z,5.60
2018-07-14T00:46:53.972Z,5.93
2018-07-14T00:49:22.220Z,5.80
2018-07-14T00:51:50.335Z,6.10
2018-07-14T00:54:18.506Z,6.50
2018-07-14T00:56:46.949Z,5.30
2018-07-14T00:59:15.035Z,5.42
2018-07-14T01:01:43.252Z,5.00
2018-07-14T01:04:11.369Z,5.15
2018-07-14T01:06:39.516Z,6.07
2018-07-14T01:09:08.036Z,5.72
2018-07-14T01:11:36.152Z,6.00
2018-07-14T01:14:04.362Z,5.37
2018-07-14T01:16:32.512Z,5.20
2018-07-14T01:19:00.645Z,5.20
2018-07-14T01:21:28.740Z,5.50
2018-07-14T01:23:56.895Z,5.10
2018-07-14T01:26:24.985Z,6.17
2018-07-14T01:28:53.107Z,5.27
2018-07-14T01:31:21.242Z,5.40
2018-07-14T01:33:49.336Z,5.57
2018-07-14T01:36:17.510Z,5.63
2018-07-14T01:38:45.617Z,5.67
2018-07-14T01:41:13.745Z,5.10
2018-07-14T01:43:42.060Z,5.97
2018-07-14T01:46:10.178Z,5.50
2018-07-14T01:48:38.282Z,5.50
2018-07-14T01:51:06.436Z,5.27
2018-07-14T01:53:34.579Z,5.27
2018-07-14T01:56:02.714Z,5.53
2018-07-14T01:58:30.832Z,6.23
2018-07-14T02:00:58.959Z,5.53
2018-07-14T02:03:27.091Z,5.70
2018-07-14T02:05:55.185Z,5.90
2018-07-14T02:08:23.290Z,5.80
2018-07-14T02:10:51.389Z,5.57
2018-07-14T02:13:19.456Z,6.97
2018-07-14T02:15:47.567Z,5.20
2018-07-14T02:18:15.686Z,5.30
2018-07-14T02:20:43.784Z,5.97
2018-07-14T02:23:11.862Z,5.40
2018-07-14T02:25:39.965Z,4.90
2018-07-14T02:28:08.138Z,5.93
2018-07-14T02:30:36.305Z,6.33
2018-07-14T02:33:04.411Z,5.87
2018-07-14T02:35:32.516Z,7.20
2018-07-14T02:38:00.614Z,7.00
2018-07-14T02:40:28.729Z,5.50
2018-07-14T02:42:56.832Z,5.73
2018-07-14T02:45:25.127Z,6.30
2018-07-14T02:47:53.340Z,5.63
2018-07-14T02:50:21.461Z,6.00
2018-07-14T02:52:49.624Z,5.65
2018-07-14T02:55:17.726Z,7.17
2018-07-14T02:57:45.853Z,5.45
2018-07-14T03:00:14.005Z,5.53
2018-07-14T03:02:42.148Z,6.00
2018-07-14T03:05:10.348Z,5.25
2018-07-14T03:07:38.509Z,5.47
2018-07-14T03:10:06.688Z,5.47
2018-07-14T03:12:34.825Z,5.50
2018-07-14T03:15:02.994Z,5.50
2018-07-14T03:17:31.188Z,4.73
2018-07-14T03:19:59.336Z,5.20
2018-07-14T03:22:27.454Z,4.47
2018-07-14T03:24:55.651Z,5.40
2018-07-14T03:27:23.798Z,5.10
2018-07-14T03:29:52.440Z,4.54
2018-07-14T03:32:20.569Z,4.70
2018-07-14T03:34:48.689Z,5.37
2018-07-14T03:37:16.798Z,4.33
2018-07-14T03:39:44.945Z,5.07
2018-07-14T03:42:13.072Z,4.60
2018-07-14T03:44:41.233Z,4.80
2018-07-14T03:47:09.391Z,4.73
2018-07-14T03:49:37.620Z,4.80
2018-07-14T03:52:05.820Z,4.60
2018-07-14T03:54:34.108Z,4.37
2018-07-14T03:57:02.338Z,4.20
2018-07-14T03:59:30.444Z,4.70
2018-07-14T04:01:58.638Z,4.50
2018-07-14T04:04:26.831Z,4.30
2018-07-14T04:06:55.011Z,4.70
2018-07-14T04:09:23.146Z,6.13
2018-07-14T04:11:51.289Z,4.97
2018-07-14T04:14:19.414Z,4.37
2018-07-14T04:16:47.592Z,4.57
2018-07-14T04:19:15.768Z,4.00
2018-07-14T04:21:43.928Z,5.10
2018-07-14T04:24:12.038Z,4.73
2018-07-14T04:26:40.178Z,3.90
2018-07-14T04:29:08.310Z,4.57
2018-07-14T04:31:36.480Z,4.20
2018-07-14T04:34:04.572Z,3.90
2018-07-14T04:36:32.684Z,3.90
2018-07-14T04:39:00.784Z,4.27
2018-07-14T04:41:28.901Z,3.97
2018-07-14T04:43:57.027Z,3.83
2018-07-14T04:46:25.156Z,4.27
2018-07-14T04:48:53.271Z,3.72
2018-07-14T04:51:21.395Z,4.20
2018-07-14T04:53:49.486Z,3.90
2018-07-14T04:56:17.604Z,4.20
2018-07-14T04:58:45.736Z,3.98
2018-07-14T05:01:13.886Z,3.92
2018-07-14T05:03:41.990Z,3.63
2018-07-14T05:06:10.128Z,4.03
2018-07-14T05:08:38.248Z,3.73
2018-07-14T05:11:06.523Z,4.40
2018-07-14T05:13:34.709Z,3.70
2018-07-14T05:16:02.865Z,4.60
2018-07-14T05:18:31.020Z,4.00
2018-07-14T05:20:59.120Z,3.50
2018-07-14T05:23:27.222Z,3.37
2018-07-14T05:25:55.334Z,3.93
2018-07-14T05:28:23.481Z,3.20
2018-07-14T05:30:51.591Z,4.10
2018-07-14T05:33:19.710Z,4.17
2018-07-14T05:35:48.628Z,3.40
2018-07-14T05:38:16.772Z,3.80
2018-07-14T05:40:44.928Z,3.70
2018-07-14T05:43:13.092Z,4.20
2018-07-14T05:45:41.251Z,3.80
2018-07-14T05:48:09.392Z,3.80
2018-07-14T05:50:37.512Z,3.63
2018-07-14T05:53:05.690Z,3.23
2018-07-14T05:55:33.869Z,4.20
2018-07-14T05:58:02.046Z,3.40
2018-07-14T06:00:30.219Z,4.17
2018-07-14T06:02:58.387Z,3.60
2018-07-14T06:05:26.549Z,4.33
2018-07-14T06:07:54.728Z,3.58
2018-07-14T06:10:22.890Z,3.90
2018-07-14T06:12:51.077Z,4.00
2018-07-14T06:15:19.236Z,3.30
2018-07-14T06:17:47.411Z,2.93
2018-07-14T06:20:15.542Z,3.43
2018-07-14T06:22:43.756Z,3.40
2018-07-14T06:25:11.938Z,3.20
2018-07-14T06:27:40.068Z,3.50
2018-07-14T06:30:08.580Z,2.52
2018-07-14T06:32:36.756Z,2.97
2018-07-14T06:35:04.935Z,2.70
2018-07-14T06:37:33.061Z,2.87
2018-07-14T06:40:01.186Z,2.57
2018-07-14T06:42:29.331Z,2.10
2018-07-14T06:44:57.914Z,2.30
2018-07-14T06:47:26.087Z,2.83
2018-07-14T06:49:54.240Z,2.33
2018-07-14T06:52:22.361Z,2.20
2018-07-14T06:54:50.489Z,2.20
2018-07-14T06:57:18.612Z,1.80
2018-07-14T06:59:46.720Z,2.00
2018-07-14T07:02:14.848Z,2.17
2018-07-14T07:04:43.002Z,1.83
2018-07-14T07:07:11.174Z,1.87
2018-07-14T07:09:39.347Z,1.90
2018-07-14T07:12:07.541Z,2.13
2018-07-14T07:14:35.717Z,1.97
2018-07-14T07:17:03.891Z,1.90
2018-07-14T07:19:32.017Z,1.70
2018-07-14T07:22:00.168Z,1.73
2018-07-14T07:24:28.298Z,1.80
2018-07-14T07:26:56.617Z,1.63
2018-07-14T07:29:24.765Z,1.83
2018-07-14T07:31:52.909Z,1.85
2018-07-14T07:34:21.070Z,1.60
2018-07-14T07:36:49.271Z,1.75
2018-07-14T07:39:17.423Z,1.35
2018-07-14T07:41:45.598Z,1.50
2018-07-14T07:44:13.762Z,1.43
2018-07-14T07:46:41.887Z,1.10
2018-07-14T07:49:10.111Z,1.20
2018-07-14T07:51:38.319Z,1.10
2018-07-14T07:54:06.635Z,1.70
2018-07-14T07:56:34.836Z,1.40
2018-07-14T07:59:03.013Z,0.97
2018-07-14T08:01:31.163Z,1.00
2018-07-14T08:03:59.409Z,1.00
2018-07-14T08:06:27.588Z,1.12
2018-07-14T08:08:55.780Z,1.27
2018-07-14T08:11:23.961Z,0.83
2018-07-14T08:13:52.284Z,1.27
2018-07-14T08:16:21.387Z,1.20
2018-07-14T08:18:49.537Z,1.23
2018-07-14T08:21:17.620Z,1.27
2018-07-14T08:23:46.097Z,1.00
2018-07-14T08:26:14.220Z,1.60
2018-07-14T08:28:42.389Z,1.30
2018-07-14T08:31:10.575Z,1.00
2018-07-14T08:33:38.691Z,1.13
2018-07-14T08:36:06.848Z,1.20
2018-07-14T08:38:35.001Z,1.23
2018-07-14T08:41:04.134Z,1.30
2018-07-14T08:43:32.300Z,1.10
2018-07-14T08:46:00.491Z,1.17
2018-07-14T08:48:28.712Z,1.37
2018-07-14T08:50:56.947Z,1.35
2018-07-14T08:53:25.085Z,1.32
2018-07-14T08:55:53.308Z,1.30
2018-07-14T08:58:25.593Z,1.27
2018-07-14T09:00:53.791Z,1.30
2018-07-14T09:03:21.968Z,1.17
2018-07-14T09:05:50.164Z,1.07
2018-07-14T09:08:18.303Z,1.23
2018-07-14T09:10:46.453Z,1.30
2018-07-14T09:13:14.641Z,1.50
2018-07-14T09:15:42.808Z,1.37
2018-07-14T09:18:10.922Z,1.07
2018-07-14T09:20:39.008Z,1.40
2018-07-14T09:23:07.200Z,1.20
2018-07-14T09:25:35.301Z,1.00
2018-07-14T09:28:03.433Z,1.47
2018-07-14T09:30:31.617Z,1.07
2018-07-14T09:32:59.777Z,1.03
2018-07-14T09:35:27.972Z,0.80
2018-07-14T09:37:56.415Z,1.10
2018-07-14T09:40:24.479Z,0.90
2018-07-14T09:42:52.744Z,0.90
2018-07-14T09:45:20.868Z,1.17
2018-07-14T09:47:49.107Z,1.10
2018-07-14T09:50:17.250Z,1.00
2018-07-14T09:52:45.441Z,1.47
2018-07-14T09:55:13.615Z,1.47
2018-07-14T09:57:41.733Z,1.30
2018-07-14T10:00:14.049Z,1.43
2018-07-14T10:02:42.238Z,1.15
2018-07-14T10:05:10.342Z,1.23
2018-07-14T10:07:38.529Z,1.00
2018-07-14T10:10:06.840Z,1.20
2018-07-14T10:12:34.921Z,0.97
2018-07-14T10:15:03.249Z,1.00
2018-07-14T10:17:31.292Z,0.97
2018-07-14T10:19:59.410Z,0.90
2018-07-14T10:22:27.501Z,1.03
2018-07-14T10:24:55.653Z,1.10
2018-07-14T10:27:23.771Z,0.90
2018-07-14T10:29:51.873Z,1.35
2018-07-14T10:32:19.977Z,0.90
2018-07-14T10:34:48.109Z,1.10
2018-07-14T10:37:16.347Z,1.27
2018-07-14T10:39:46.695Z,0.82
2018-07-14T10:42:20.425Z,2.65
2018-07-14T10:44:50.937Z,1.30
2018-07-14T10:47:19.196Z,1.03
2018-07-14T10:49:47.474Z,1.40
2018-07-14T10:52:15.622Z,1.10
2018-07-14T10:54:43.925Z,1.10
2018-07-14T10:57:11.988Z,1.07
2018-07-14T10:59:40.898Z,1.20
2018-07-14T11:02:09.056Z,1.20
2018-07-14T11:04:37.202Z,1.10
2018-07-14T11:07:05.467Z,1.17
2018-07-14T11:09:33.561Z,1.22
2018-07-14T11:12:01.699Z,1.10
2018-07-14T11:14:29.816Z,1.00
2018-07-14T11:16:58.111Z,0.88
2018-07-14T11:19:26.232Z,1.00
2018-07-14T11:21:54.388Z,0.90
2018-07-14T11:24:22.487Z,1.05
2018-07-14T11:26:50.641Z,1.17
2018-07-14T11:29:18.801Z,1.32
2018-07-14T11:31:47.008Z,1.10
2018-07-14T11:34:15.113Z,1.43
2018-07-14T11:36:43.230Z,1.00
2018-07-14T11:39:11.342Z,1.05
2018-07-14T11:41:39.471Z,1.30
2018-07-14T11:44:07.604Z,1.10
2018-07-14T11:46:35.717Z,1.20
2018-07-14T11:49:03.871Z,1.40
2018-07-14T11:51:32.001Z,1.30
2018-07-14T11:54:00.219Z,1.40
2018-07-14T11:56:28.380Z,1.20
2018-07-14T11:58:56.468Z,0.90
2018-07-14T12:01:24.661Z,1.22
2018-07-14T12:03:52.791Z,1.30
2018-07-14T12:06:20.953Z,1.40
2018-07-14T12:08:49.049Z,1.17
2018-07-14T12:11:17.202Z,1.17
2018-07-14T12:13:45.308Z,2.13
2018-07-14T12:16:13.417Z,1.40
2018-07-14T12:18:41.577Z,1.23
2018-07-14T12:21:10.540Z,1.27
2018-07-14T12:23:38.644Z,1.32
2018-07-14T12:26:06.792Z,1.52
2018-07-14T12:28:35.115Z,1.47
2018-07-14T12:31:03.310Z,1.30
2018-07-14T12:33:31.449Z,1.20
2018-07-14T12:35:59.692Z,1.22
2018-07-14T12:38:28.083Z,1.33
2018-07-14T12:40:56.339Z,1.00
2018-07-14T12:43:24.825Z,1.40
2018-07-14T12:45:53.044Z,2.20
2018-07-14T12:48:21.229Z,1.10
2018-07-14T12:50:49.920Z,1.30
2018-07-14T12:53:18.117Z,1.40
2018-07-14T12:55:46.304Z,1.50
2018-07-14T12:58:14.495Z,1.32
2018-07-14T13:00:42.695Z,1.50
2018-07-14T13:03:10.842Z,1.60
2018-07-14T13:05:39.005Z,1.57
2018-07-14T13:08:07.175Z,1.50
2018-07-14T13:10:35.333Z,1.57
2018-07-14T13:13:03.461Z,1.50
2018-07-14T13:15:31.664Z,1.60
2018-07-14T13:17:59.834Z,2.10
2018-07-14T13:20:27.984Z,1.47
2018-07-14T13:22:56.326Z,1.73
2018-07-14T13:25:24.548Z,1.83
2018-07-14T13:27:52.760Z,1.80
2018-07-14T13:30:20.915Z,1.60
2018-07-14T13:32:49.067Z,1.40
2018-07-14T13:35:17.232Z,1.60
2018-07-14T13:37:45.413Z,1.40
2018-07-14T13:40:13.608Z,2.10
2018-07-14T13:42:41.760Z,1.63
2018-07-14T13:45:11.372Z,1.67
2018-07-14T13:47:39.564Z,1.50
2018-07-14T13:50:07.739Z,1.10
2018-07-14T13:52:35.938Z,1.40
2018-07-14T13:55:04.208Z,1.13
2018-07-14T13:57:32.374Z,1.37
2018-07-14T14:00:00.555Z,1.30
2018-07-14T14:02:28.705Z,1.00
2018-07-14T14:04:56.835Z,1.23
2018-07-14T14:07:24.960Z,0.98
2018-07-14T14:09:53.119Z,1.70
2018-07-14T14:12:21.268Z,1.77
2018-07-14T14:14:49.453Z,1.45
2018-07-14T14:17:17.588Z,1.50
2018-07-14T14:19:45.719Z,1.30
2018-07-14T14:22:13.864Z,1.32
2018-07-14T14:24:42.052Z,1.42
2018-07-14T14:27:10.192Z,1.42
2018-07-14T14:29:38.331Z,1.50
2018-07-14T14:32:06.640Z,1.13
2018-07-14T14:34:34.797Z,1.60
2018-07-14T14:37:02.913Z,1.20
2018-07-14T14:39:31.472Z,1.30
2018-07-14T14:41:59.945Z,1.10
2018-07-14T14:44:28.086Z,1.00
2018-07-14T14:46:56.280Z,1.40
2018-07-14T14:49:24.385Z,1.20
2018-07-14T14:51:52.558Z,1.30
2018-07-14T14:54:20.679Z,1.20
2018-07-14T14:56:48.841Z,1.47
2018-07-14T14:59:16.995Z,1.17
2018-07-14T15:01:45.120Z,1.40
2018-07-14T15:04:13.315Z,1.20
2018-07-14T15:06:41.404Z,1.13
2018-07-14T15:09:09.648Z,1.30
2018-07-14T15:11:37.684Z,1.20
2018-07-14T15:14:05.848Z,1.00
2018-07-14T15:16:34.081Z,1.33
2018-07-14T15:19:02.111Z,1.27
2018-07-14T15:21:31.302Z,1.10
2018-07-14T15:23:59.439Z,1.17
2018-07-14T15:26:27.530Z,1.30
2018-07-14T15:28:55.656Z,1.30
2018-07-14T15:31:24.235Z,1.37
2018-07-14T15:33:52.333Z,1.20
2018-07-14T15:36:20.460Z,1.30
2018-07-14T15:38:48.591Z,1.10
2018-07-14T15:41:16.692Z,1.10
2018-07-14T15:43:44.866Z,1.40
2018-07-14T15:46:12.990Z,1.40
2018-07-14T15:48:41.060Z,1.35
2018-07-14T15:51:09.188Z,1.00
2018-07-14T15:53:37.299Z,1.10
2018-07-14T15:56:06.081Z,1.40
2018-07-14T15:58:34.185Z,1.10
2018-07-14T16:01:02.339Z,1.47
2018-07-14T16:03:30.435Z,1.37
2018-07-14T16:05:58.728Z,1.17
2018-07-14T16:08:26.841Z,1.40
2018-07-14T16:10:54.964Z,1.43
2018-07-14T16:13:23.208Z,1.30
2018-07-14T16:15:51.445Z,1.20
2018-07-14T16:18:19.653Z,1.22
2018-07-14T16:20:48.967Z,1.17
2018-07-14T16:23:23.432Z,1.20
2018-07-14T16:25:57.051Z,1.37
2018-07-14T16:28:28.521Z,1.17
2018-07-14T16:30:57.395Z,1.60
2018-07-14T16:33:28.708Z,1.20
2018-07-14T16:35:57.645Z,1.33
2018-07-14T16:38:25.824Z,1.37
2018-07-14T16:40:54.053Z,0.90
2018-07-14T16:43:22.203Z,1.13
2018-07-14T16:45:50.401Z,1.60
2018-07-14T16:48:18.564Z,1.40
2018-07-14T16:50:46.769Z,1.30
2018-07-14T16:53:14.988Z,1.03
2018-07-14T16:55:43.310Z,1.30
2018-07-14T16:58:11.410Z,1.47
2018-07-14T17:00:39.541Z,1.27
2018-07-14T17:03:07.664Z,1.70
2018-07-14T17:05:35.827Z,1.20
2018-07-14T17:08:03.929Z,1.30
2018-07-14T17:10:32.076Z,1.10
2018-07-14T17:13:00.161Z,1.37
2018-07-14T17:15:28.252Z,1.37
2018-07-14T17:17:56.373Z,1.40
2018-07-14T17:20:24.574Z,1.10
2018-07-14T17:22:52.787Z,1.63
2018-07-14T17:25:20.907Z,1.20
2018-07-14T17:27:49.016Z,1.10
2018-07-14T17:30:17.195Z,1.10
2018-07-14T17:32:45.297Z,1.20
2018-07-14T17:35:13.391Z,1.40
2018-07-14T17:37:41.464Z,1.40
2018-07-14T17:40:09.546Z,1.40
2018-07-14T17:42:37.634Z,1.73
2018-07-14T17:45:06.187Z,1.47
2018-07-14T17:47:34.472Z,1.70
2018-07-14T17:50:02.876Z,1.32
2018-07-14T17:52:31.065Z,1.20
2018-07-14T17:54:59.228Z,1.30
2018-07-14T17:57:27.333Z,1.30
2018-07-14T17:59:55.471Z,1.20
2018-07-14T18:02:23.569Z,1.30
2018-07-14T18:04:51.668Z,1.90
2018-07-14T18:07:19.767Z,1.35
2018-07-14T18:09:47.889Z,1.20
2018-07-14T18:12:15.983Z,1.40
2018-07-14T18:14:44.168Z,1.50
2018-07-14T18:17:12.256Z,1.30
2018-07-14T18:39:19.855Z,1.50
2018-07-14T18:55:02.109Z,1.67
2018-07-14T18:57:31.072Z,1.87
2018-07-14T18:59:59.247Z,1.97
2018-07-14T19:02:27.410Z,1.70
2018-07-14T19:04:55.578Z,2.00
2018-07-14T19:07:23.735Z,1.93
2018-07-14T19:09:51.945Z,2.10
2018-07-14T19:12:20.107Z,1.60
2018-07-14T19:14:48.353Z,2.30
2018-07-14T19:17:16.561Z,1.75
2018-07-14T19:19:45.077Z,1.32
2018-07-14T19:22:13.238Z,1.95
2018-07-14T19:24:41.360Z,2.00
2018-07-14T19:27:09.507Z,2.05
2018-07-14T19:29:38.070Z,1.80
2018-07-14T19:32:06.620Z,1.97
2018-07-14T19:34:34.757Z,1.70
2018-07-14T19:37:02.926Z,1.80
2018-07-14T19:39:31.056Z,2.07
2018-07-14T19:41:59.269Z,1.87
2018-07-14T19:44:27.425Z,2.40
2018-07-14T19:46:55.656Z,2.10
2018-07-14T19:49:23.787Z,2.50
2018-07-14T19:51:51.990Z,2.10
2018-07-14T19:54:20.142Z,1.97
2018-07-14T19:56:48.323Z,1.83
2018-07-14T19:59:16.471Z,2.00
2018-07-14T20:01:44.663Z,1.77
2018-07-14T20:04:12.840Z,1.70
2018-07-14T20:06:41.082Z,1.85
2018-07-14T20:09:09.232Z,1.80
2018-07-14T20:11:37.438Z,1.85
2018-07-14T20:14:05.759Z,2.10
2018-07-14T20:16:33.920Z,1.90
2018-07-14T20:19:02.037Z,1.90
2018-07-14T20:21:30.154Z,1.87
2018-07-14T20:23:58.303Z,1.70
2018-07-14T20:26:26.503Z,2.23
2018-07-14T20:28:54.668Z,2.17
2018-07-14T20:31:22.836Z,2.70
2018-07-14T20:33:50.986Z,2.30
2018-07-14T20:36:19.096Z,2.10
2018-07-14T20:38:47.247Z,2.30
2018-07-14T20:41:15.419Z,2.63
2018-07-14T20:43:43.519Z,2.40
2018-07-14T20:46:11.670Z,2.70
2018-07-14T20:48:39.818Z,3.20
2018-07-14T20:51:07.921Z,2.77
2018-07-14T20:53:36.081Z,2.67
2018-07-14T20:56:04.253Z,3.20
2018-07-14T20:58:32.445Z,2.40
2018-07-14T21:01:00.708Z,2.80
2018-07-14T21:03:28.890Z,2.67
2018-07-14T21:05:57.174Z,2.90
2018-07-14T21:08:25.348Z,2.83
2018-07-14T21:10:53.803Z,2.90
2018-07-14T21:13:22.085Z,3.50
2018-07-14T21:15:50.233Z,2.83
2018-07-14T21:18:18.426Z,3.20
2018-07-14T21:20:46.650Z,3.77
2018-07-14T21:23:14.763Z,3.20
2018-07-14T21:25:42.942Z,3.47
2018-07-14T21:28:11.091Z,3.10
2018-07-14T21:30:39.314Z,3.70
2018-07-14T21:33:07.443Z,3.33
2018-07-14T21:35:35.736Z,2.90
2018-07-14T21:38:03.857Z,3.13
2018-07-14T21:40:32.003Z,3.50
2018-07-14T21:43:00.156Z,3.40
2018-07-14T21:45:28.367Z,3.53
2018-07-14T21:47:56.574Z,3.23
2018-07-14T21:50:24.753Z,3.37
2018-07-14T21:52:52.948Z,3.13
2018-07-14T21:55:21.085Z,3.60
2018-07-14T21:57:49.216Z,3.40
2018-07-14T22:00:32.030Z,3.33
2018-07-14T22:03:01.114Z,3.30
2018-07-14T22:05:29.260Z,3.30
2018-07-14T22:07:57.365Z,3.77
2018-07-14T22:10:25.615Z,3.67
2018-07-14T22:12:54.030Z,3.37
2018-07-14T22:15:22.917Z,3.40
2018-07-14T22:17:51.274Z,3.27
2018-07-14T22:20:19.427Z,3.55
2018-07-14T22:22:47.633Z,3.42
2018-07-14T22:25:15.762Z,3.80
2018-07-14T22:27:43.889Z,3.60
2018-07-14T22:30:12.048Z,3.37
2018-07-14T22:32:40.186Z,4.20
2018-07-14T22:35:08.346Z,3.43
2018-07-14T22:37:36.455Z,3.43
2018-07-14T22:40:04.672Z,4.23
2018-07-14T22:42:32.853Z,4.20
2018-07-14T22:45:01.007Z,3.37
2018-07-14T22:47:29.163Z,4.30
2018-07-14T22:49:57.280Z,3.80
2018-07-14T22:52:25.428Z,3.77
2018-07-14T22:54:54.412Z,3.60
2018-07-14T22:57:22.530Z,3.87
2018-07-14T22:59:50.640Z,4.15
2018-07-14T23:02:18.809Z,4.28
2018-07-14T23:04:46.950Z,4.20
2018-07-14T23:07:15.057Z,4.40
2018-07-14T23:09:43.861Z,4.32
2018-07-14T23:12:11.914Z,4.20
2018-07-14T23:14:40.047Z,4.25
2018-07-14T23:17:08.222Z,4.55
2018-07-14T23:19:36.376Z,4.78
2018-07-14T23:22:04.532Z,4.22
2018-07-14T23:24:32.645Z,4.47
2018-07-14T23:27:00.749Z,3.93
2018-07-14T23:29:28.876Z,5.10
2018-07-14T23:31:56.996Z,4.13
2018-07-14T23:34:25.096Z,4.00
2018-07-14T23:36:53.223Z,4.03
2018-07-14T23:39:21.339Z,4.10
2018-07-14T23:41:49.481Z,3.80
2018-07-14T23:44:17.607Z,3.90
2018-07-14T23:46:45.795Z,3.77
2018-07-14T23:49:13.885Z,3.90
2018-07-14T23:51:41.987Z,3.60
2018-07-14T23:54:10.113Z,4.27
2018-07-14T23:56:38.260Z,4.95
2018-07-14T23:59:06.341Z,4.60
